General Aviation Weather

Text Reports

Enter one or more of the following location identifiers separated by a space:

Zip Code, Four-Character ICAO or Three-Character IATA airport codes.

METAR - Aviation Routine Weather Report
KCCY - Charles City, Iowa
Updated at 11:15 PM GMT on July 23, 2016 (6:15 PM CDT):
METAR KCCY 232315Z AUTO 12013KT 10SM CLR 24/23 A2985 RMK AO2
TAF - Terminal Area Forecast
KCCY - Charles City, Iowa
Updated at 11:15 PM GMT on July 23, 2016 (6:15 PM CDT):
No TAF is currently available for this location.
Decoded:
No decoded TAF is available.
PIREP - Pilot Weather Report
KCCY - Charles City, Iowa
Updated at 11:15 PM GMT on July 23, 2016 (6:15 PM CDT):
No PIREP is currently available for this location.
AIRMET - Airmens Meteorological Information
KCCY - Charles City, Iowa
Updated at 11:15 PM GMT on July 23, 2016 (6:15 PM CDT):
No AIRMET is currently available for this location.
SIGMET - Significant Meteorological Information
KCCY - Charles City, Iowa
Updated at 11:15 PM GMT on July 23, 2016 (6:15 PM CDT):
No SIGMET is currently available for this location.
NOTAM - Notice to Airmen
KCCY - Charles City, Iowa
Updated at 11:15 PM GMT on July 23, 2016 (6:15 PM CDT):
No NOTAM is currently available for this location.
Forecast Area
KCCY - Charles City, Iowa
Updated at 11:15 PM GMT on July 23, 2016 (6:15 PM CDT):
No NOTAM is currently available for this location.
Aviation Weather Maps